createdAt,value
2023-05-29T00:20:20.972Z,63.2
2023-05-29T00:50:39.103Z,66.2
2023-05-29T01:20:56.159Z,64.9
2023-05-29T01:51:14.078Z,65.5
2023-05-29T02:21:30.919Z,67.6
2023-05-29T02:51:47.510Z,71.9
2023-05-29T03:22:03.138Z,74.5
2023-05-29T03:52:19.800Z,76.1
2023-05-29T04:22:39.158Z,75.2
2023-05-29T04:52:59.624Z,72.3
2023-05-29T05:23:20.946Z,65.8
2023-05-29T05:53:43.153Z,64.2
2023-05-29T06:24:04.863Z,62.2
2023-05-29T06:54:39.025Z,55.4
2023-05-29T07:25:04.983Z,50.8
2023-05-29T07:55:26.880Z,48.3
2023-05-29T08:25:49.962Z,44
2023-05-29T08:56:23.170Z,42.7
2023-05-29T09:26:39.161Z,40.4
2023-05-29T09:57:03.890Z,40.4
2023-05-29T10:27:24.768Z,38.7
2023-05-29T10:57:44.813Z,36.5
2023-05-29T11:28:04.095Z,36.8
2023-05-29T11:58:25.485Z,36.7
2023-05-29T12:28:42.524Z,38.3
2023-05-29T12:59:02.649Z,38.9
2023-05-29T13:29:18.977Z,38.2
2023-05-29T13:59:28.633Z,38.9
2023-05-29T14:29:31.940Z,39.8
2023-05-29T14:59:44.961Z,41.1
2023-05-29T15:30:00.148Z,43.8
2023-05-29T16:00:16.476Z,44.3
2023-05-29T16:30:32.842Z,44.4
2023-05-29T17:00:49.818Z,44.9
2023-05-29T17:31:05.749Z,47.7
2023-05-29T18:01:23.077Z,50.1
2023-05-29T18:31:40.507Z,53.2
2023-05-29T19:01:56.938Z,56.2
2023-05-29T19:32:12.643Z,59
2023-05-29T20:02:30.321Z,61.5
2023-05-29T20:32:47.169Z,63.1
2023-05-29T21:03:04.859Z,64
2023-05-29T21:33:23.968Z,63.5
2023-05-29T22:03:41.032Z,63.3
2023-05-29T22:33:58.043Z,63.2
2023-05-29T23:04:15.503Z,62.4
2023-05-29T23:34:32.831Z,62.4
